Time;durP1;ratioP1;P1;durP2;ratioP2;P2;SDS_P1;SDS_P2;PMS_P1;PMS_P2;Temp;Humidity;BMP_temperature;BMP_pressure;BME280_temperature;BME280_humidity;BME280_pressure;Samples;Min_cycle;Max_cycle;Signal;HPM_P1;HPM_P2
2021/12/27 00:00:47;;;;;;;50.87;27.93;;;;;;;6.32;100.00;94312.34;5099246;28;20286;-83
2021/12/27 00:03:15;;;;;;;55.47;28.97;;;;;;;6.28;100.00;94316.31;5093482;28;20302;-82
2021/12/27 00:05:44;;;;;;;53.03;28.90;;;;;;;6.34;100.00;94310.38;5094830;28;20208;-82
2021/12/27 00:08:12;;;;;;;56.57;29.07;;;;;;;6.36;100.00;94305.78;5097108;28;20215;-81
2021/12/27 00:10:40;;;;;;;60.83;32.03;;;;;;;6.49;100.00;94323.84;5098408;28;20231;-81
2021/12/27 00:13:08;;;;;;;59.83;31.10;;;;;;;6.39;100.00;94315.72;5097431;28;20216;-81
2021/12/27 00:15:39;;;;;;;55.27;31.40;;;;;;;6.35;100.00;94296.44;5096260;28;20204;-82
2021/12/27 00:18:08;;;;;;;51.00;26.67;;;;;;;6.29;100.00;94323.09;5091547;28;20229;-82
2021/12/27 00:20:36;;;;;;;52.03;27.13;;;;;;;6.21;100.00;94308.59;5098502;28;20252;-82
2021/12/27 00:23:05;;;;;;;51.37;27.20;;;;;;;6.00;100.00;94303.63;5098209;28;20214;-81
2021/12/27 00:25:33;;;;;;;49.93;26.83;;;;;;;5.82;100.00;94294.88;5096178;28;20266;-81
2021/12/27 00:28:01;;;;;;;51.77;27.17;;;;;;;5.88;100.00;94282.03;5097881;28;20232;-81
2021/12/27 00:30:29;;;;;;;49.50;26.50;;;;;;;5.86;100.00;94258.19;5091071;28;20198;-81
2021/12/27 00:32:58;;;;;;;45.90;25.60;;;;;;;6.05;100.00;94295.28;5103545;28;20195;-81
2021/12/27 00:35:29;;;;;;;48.90;26.40;;;;;;;6.16;100.00;94310.97;5094491;28;20599;-78
2021/12/27 00:37:57;;;;;;;53.43;26.00;;;;;;;6.20;100.00;94296.66;5090248;28;20712;-79
2021/12/27 00:40:25;;;;;;;46.90;25.77;;;;;;;6.20;100.00;94295.91;5093358;28;20263;-79
2021/12/27 00:42:52;;;;;;;50.87;27.13;;;;;;;6.31;100.00;94297.88;5091716;28;20637;-79
2021/12/27 00:45:21;;;;;;;48.90;27.17;;;;;;;6.37;100.00;94294.47;5090681;28;20207;-79
2021/12/27 00:47:49;;;;;;;50.70;26.83;;;;;;;6.46;100.00;94313.94;5088186;28;20197;-80
2021/12/27 00:50:19;;;;;;;46.00;25.20;;;;;;;6.47;100.00;94312.13;5090350;28;20211;-79
2021/12/27 00:52:49;;;;;;;49.33;25.33;;;;;;;6.41;100.00;94316.31;5089635;28;20203;-79
2021/12/27 00:55:18;;;;;;;50.23;24.90;;;;;;;6.37;100.00;94328.03;5092324;28;20214;-79
2021/12/27 00:57:47;;;;;;;44.33;23.70;;;;;;;6.41;100.00;94320.66;5090622;28;20239;-79
2021/12/27 01:00:18;;;;;;;42.70;24.13;;;;;;;6.41;100.00;94315.50;5093909;28;20586;-77
2021/12/27 01:02:47;;;;;;;48.10;25.07;;;;;;;6.42;100.00;94317.09;5090663;28;20199;-78
2021/12/27 01:05:18;;;;;;;48.27;25.23;;;;;;;6.49;100.00;94336.75;5093531;28;20563;-77
2021/12/27 01:07:47;;;;;;;45.83;24.43;;;;;;;6.36;100.00;94321.28;5092937;28;20199;-79
2021/12/27 01:10:59;;;;;;;42.40;23.60;;;;;;;6.36;100.00;94303.22;5089725;28;20258;-77
2021/12/27 01:13:36;;;;;;;45.27;24.07;;;;;;;6.38;100.00;94295.28;5092870;28;20225;-78
2021/12/27 01:16:12;;;;;;;42.87;24.97;;;;;;;6.41;100.00;94313.72;5091940;28;20203;-78
2021/12/27 01:18:44;;;;;;;41.27;23.57;;;;;;;6.47;100.00;94302.59;5102140;28;20662;-77
2021/12/27 01:21:14;;;;;;;43.37;23.67;;;;;;;6.50;100.00;94301.41;5090863;28;20223;-77
2021/12/27 01:23:42;;;;;;;47.80;24.77;;;;;;;6.44;100.00;94303.00;5099686;28;20596;-78
2021/12/27 01:26:10;;;;;;;46.47;23.17;;;;;;;6.49;100.00;94316.13;5092989;28;20199;-78
2021/12/27 01:28:41;;;;;;;40.23;22.87;;;;;;;6.52;100.00;94305.34;5087991;28;20275;-78
2021/12/27 01:31:09;;;;;;;47.97;23.83;;;;;;;6.57;100.00;94302.19;5090833;28;20203;-79
2021/12/27 01:33:37;;;;;;;51.07;25.97;;;;;;;6.62;100.00;94290.25;5090674;28;20214;-78
2021/12/27 01:36:05;;;;;;;46.40;25.30;;;;;;;6.60;100.00;94283.72;5090776;28;20595;-78
2021/12/27 01:38:36;;;;;;;41.90;22.90;;;;;;;6.54;100.00;94277.56;5094710;28;20730;-78
2021/12/27 01:41:06;;;;;;;46.33;24.60;;;;;;;6.39;100.00;94282.16;5096326;28;20957;-78
2021/12/27 01:43:36;;;;;;;46.47;23.97;;;;;;;6.24;100.00;94297.88;5090405;28;20232;-78
2021/12/27 01:46:07;;;;;;;51.77;26.53;;;;;;;6.18;100.00;94292.69;5101987;28;20276;-79
2021/12/27 01:48:38;;;;;;;56.10;27.37;;;;;;;6.26;100.00;94282.97;5093044;28;20576;-78
2021/12/27 01:51:08;;;;;;;52.63;26.87;;;;;;;6.31;100.00;94287.53;5088314;28;20203;-78
2021/12/27 01:53:39;;;;;;;53.50;26.50;;;;;;;6.33;100.00;94292.50;5090638;28;20213;-77
2021/12/27 01:56:09;;;;;;;50.27;27.27;;;;;;;6.26;100.00;94290.72;5095701;28;20214;-78
2021/12/27 01:58:38;;;;;;;44.83;24.33;;;;;;;6.22;100.00;94255.19;5086812;28;20947;-78
2021/12/27 02:01:10;;;;;;;47.47;25.87;;;;;;;6.30;100.00;94273.03;5091840;28;20771;-78
2021/12/27 02:03:40;;;;;;;48.03;25.33;;;;;;;6.32;100.00;94290.91;5091870;28;20193;-78
2021/12/27 02:06:09;;;;;;;45.70;24.90;;;;;;;6.32;100.00;94268.47;5094338;28;20218;-78
2021/12/27 02:08:42;;;;;;;42.70;23.77;;;;;;;6.38;100.00;94266.91;5091536;28;20217;-78
2021/12/27 02:11:11;;;;;;;39.93;22.27;;;;;;;6.42;100.00;94302.41;5095297;28;20293;-77
2021/12/27 02:13:42;;;;;;;37.90;20.10;;;;;;;6.38;100.00;94246.25;5091154;28;20200;-78
2021/12/27 02:16:10;;;;;;;37.10;21.17;;;;;;;6.31;100.00;94251.41;5095833;28;20204;-78
2021/12/27 02:18:40;;;;;;;31.60;20.20;;;;;;;6.26;100.00;94223.63;5089981;28;20202;-78
2021/12/27 02:21:09;;;;;;;34.63;21.00;;;;;;;6.49;100.00;94259.34;5090898;28;20729;-79
2021/12/27 02:23:40;;;;;;;43.57;22.10;;;;;;;6.57;100.00;94269.44;5095222;28;20207;-79
2021/12/27 02:26:09;;;;;;;38.17;22.63;;;;;;;6.67;100.00;94251.72;5091545;28;20246;-79
2021/12/27 02:28:38;;;;;;;40.13;22.30;;;;;;;6.76;100.00;94247.91;5097065;28;20288;-80
2021/12/27 02:31:06;;;;;;;43.53;23.13;;;;;;;6.78;100.00;94247.72;5093840;28;20202;-80
2021/12/27 02:33:37;;;;;;;42.00;23.50;;;;;;;6.79;100.00;94260.41;5096533;28;21017;-79
2021/12/27 02:36:07;;;;;;;39.43;24.40;;;;;;;6.74;100.00;94255.06;5099341;28;20209;-78
2021/12/27 02:38:39;;;;;;;41.43;24.30;;;;;;;6.74;100.00;94252.50;5092096;28;20297;-78
2021/12/27 02:41:09;;;;;;;57.20;25.90;;;;;;;6.84;100.00;94254.63;5098694;28;20783;-78
2021/12/27 02:43:39;;;;;;;45.17;26.30;;;;;;;6.80;100.00;94246.53;5091882;28;20204;-78
2021/12/27 02:46:09;;;;;;;47.67;27.13;;;;;;;6.83;100.00;94233.19;5102953;28;20280;-78
2021/12/27 02:48:39;;;;;;;48.30;28.10;;;;;;;6.87;100.00;94236.13;5092405;28;20209;-77
2021/12/27 02:51:08;;;;;;;55.73;29.10;;;;;;;6.85;100.00;94257.00;5093021;28;20218;-77
2021/12/27 02:53:38;;;;;;;53.60;30.87;;;;;;;6.86;100.00;94226.81;5090136;28;20210;-78
2021/12/27 02:56:07;;;;;;;56.97;30.60;;;;;;;6.74;100.00;94236.22;5090037;28;20210;-77
2021/12/27 02:58:36;;;;;;;55.90;29.27;;;;;;;6.60;100.00;94219.19;5090176;28;20230;-79
2021/12/27 03:01:09;;;;;;;52.60;28.60;;;;;;;6.42;100.00;94239.69;5093390;28;20218;-78
2021/12/27 03:03:38;;;;;;;55.30;30.23;;;;;;;6.38;100.00;94236.69;5100344;28;20236;-78
2021/12/27 03:06:08;;;;;;;52.57;28.57;;;;;;;6.40;100.00;94250.22;5089389;28;20690;-79
2021/12/27 03:08:39;;;;;;;46.50;26.67;;;;;;;6.39;100.00;94242.66;5093409;28;20260;-79
2021/12/27 03:11:10;;;;;;;38.63;22.13;;;;;;;6.40;100.00;94234.72;5091092;28;20215;-79
2021/12/27 03:13:40;;;;;;;41.20;22.87;;;;;;;6.46;100.00;94246.03;5095434;28;20200;-79
2021/12/27 03:16:09;;;;;;;38.20;22.00;;;;;;;6.45;100.00;94192.81;5084446;28;20225;-79
2021/12/27 03:18:39;;;;;;;39.30;22.60;;;;;;;6.42;100.00;94250.00;5094945;28;20318;-79
2021/12/27 03:21:09;;;;;;;37.53;20.17;;;;;;;6.43;100.00;94224.00;5087162;28;20878;-79
2021/12/27 03:23:41;;;;;;;36.80;20.93;;;;;;;6.43;100.00;94215.47;5094446;28;20197;-78
2021/12/27 03:26:09;;;;;;;32.33;19.47;;;;;;;6.51;100.00;94235.88;5088450;28;20648;-79
2021/12/27 03:28:39;;;;;;;33.77;19.13;;;;;;;6.51;100.00;94222.97;5086556;28;20245;-79
2021/12/27 03:31:09;;;;;;;31.77;19.23;;;;;;;6.59;100.00;94230.50;5090741;28;20203;-79
2021/12/27 03:33:37;;;;;;;32.83;19.87;;;;;;;6.54;100.00;94207.88;5091257;28;20200;-79
2021/12/27 03:36:07;;;;;;;37.20;20.23;;;;;;;6.70;100.00;94233.22;5097899;28;20226;-78
2021/12/27 03:38:39;;;;;;;33.63;19.27;;;;;;;6.63;100.00;94195.53;5092473;28;20211;-79
2021/12/27 03:41:13;;;;;;;32.33;18.77;;;;;;;6.56;100.00;94239.44;5098169;28;20202;-78
2021/12/27 03:43:42;;;;;;;36.37;19.07;;;;;;;6.62;100.00;94193.94;5092426;28;20207;-79
2021/12/27 03:46:11;;;;;;;32.37;18.47;;;;;;;6.62;100.00;94215.41;5088959;28;20297;-78
2021/12/27 03:48:39;;;;;;;29.50;17.57;;;;;;;6.58;100.00;94175.47;5090972;28;20238;-78
2021/12/27 03:51:08;;;;;;;32.17;18.50;;;;;;;6.54;100.00;94214.84;5098197;28;20199;-78
2021/12/27 03:53:38;;;;;;;31.40;17.70;;;;;;;6.62;100.00;94199.91;5086180;28;20292;-78
2021/12/27 03:56:08;;;;;;;28.93;17.50;;;;;;;6.73;100.00;94177.81;5096132;28;20282;-77
2021/12/27 03:58:47;;;;;;;30.37;16.83;;;;;;;6.78;100.00;94219.31;5085828;28;20674;-77
2021/12/27 04:01:16;;;;;;;23.77;15.23;;;;;;;6.83;100.00;94207.38;5093543;28;20208;-77
2021/12/27 04:03:46;;;;;;;29.63;17.13;;;;;;;6.86;100.00;94208.75;5088705;28;20789;-78
2021/12/27 04:06:15;;;;;;;30.83;17.27;;;;;;;6.88;100.00;94199.00;5093645;28;20223;-78
2021/12/27 04:08:45;;;;;;;28.10;17.57;;;;;;;7.01;100.00;94206.69;5100298;28;20567;-78
2021/12/27 04:11:13;;;;;;;28.17;16.67;;;;;;;7.10;100.00;94222.75;5090148;28;20211;-78
2021/12/27 04:13:41;;;;;;;29.73;17.40;;;;;;;6.81;100.00;94185.34;5088244;28;20735;-78
2021/12/27 04:16:09;;;;;;;29.83;17.30;;;;;;;7.03;100.00;94225.34;5094648;28;20265;-81
2021/12/27 04:18:37;;;;;;;33.03;18.50;;;;;;;6.87;100.00;94207.72;5086027;28;20234;-78
2021/12/27 04:21:06;;;;;;;29.10;17.40;;;;;;;6.73;100.00;94213.97;5088953;28;20203;-78
2021/12/27 04:23:34;;;;;;;31.17;17.93;;;;;;;6.68;100.00;94239.59;5092002;28;20199;-78
2021/12/27 04:26:04;;;;;;;28.70;16.53;;;;;;;6.65;100.00;94194.34;5087006;28;20222;-78
2021/12/27 04:28:32;;;;;;;33.47;18.73;;;;;;;6.71;100.00;94244.34;5090909;28;20253;-78
2021/12/27 04:31:00;;;;;;;36.30;19.87;;;;;;;6.80;100.00;94212.94;5088933;28;20207;-74
2021/12/27 04:33:28;;;;;;;34.37;18.33;;;;;;;6.88;100.00;94226.59;5088531;28;20208;-79
2021/12/27 04:35:56;;;;;;;36.03;19.50;;;;;;;6.92;100.00;94222.63;5095803;28;20208;-80
2021/12/27 04:38:23;;;;;;;34.03;20.40;;;;;;;6.92;100.00;94214.88;5097462;28;20692;-79
2021/12/27 04:40:54;;;;;;;35.70;20.93;;;;;;;6.97;100.00;94204.72;5097779;28;20960;-78
2021/12/27 04:43:25;;;;;;;32.47;19.70;;;;;;;7.00;100.00;94227.56;5094500;28;20213;-79
2021/12/27 04:45:54;;;;;;;48.60;26.90;;;;;;;6.96;100.00;94227.16;5103796;28;20189;-79
2021/12/27 04:48:23;;;;;;;57.57;30.33;;;;;;;7.04;100.00;94231.31;5091853;28;20257;-78
2021/12/27 04:50:52;;;;;;;62.67;33.50;;;;;;;6.98;100.00;94225.19;5092540;28;20196;-79
2021/12/27 04:53:19;;;;;;;61.43;32.47;;;;;;;6.92;100.00;94217.47;5098319;28;20202;-78
2021/12/27 04:55:47;;;;;;;52.77;29.83;;;;;;;7.01;100.00;94226.56;5096435;28;20611;-78
2021/12/27 04:58:17;;;;;;;54.83;29.10;;;;;;;6.97;100.00;94236.50;5093742;28;20219;-78
2021/12/27 05:00:47;;;;;;;50.03;27.40;;;;;;;6.96;100.00;94224.56;5098380;28;20237;-78
2021/12/27 05:03:15;;;;;;;41.80;23.87;;;;;;;6.92;100.00;94202.75;5097839;28;20248;-78
2021/12/27 05:05:45;;;;;;;29.43;17.57;;;;;;;6.96;100.00;94219.41;5092021;28;20207;-78
2021/12/27 05:08:14;;;;;;;36.00;21.50;;;;;;;6.99;100.00;94221.59;5093358;28;20208;-78
2021/12/27 05:10:43;;;;;;;34.07;19.03;;;;;;;6.93;100.00;94235.31;5095922;28;20606;-78
2021/12/27 05:13:12;;;;;;;32.73;19.83;;;;;;;6.85;100.00;94228.59;5097397;28;20210;-78
2021/12/27 05:15:40;;;;;;;37.87;21.30;;;;;;;6.88;100.00;94227.41;5096808;28;20260;-78
2021/12/27 05:18:09;;;;;;;33.17;18.80;;;;;;;6.85;100.00;94236.34;5101127;28;20243;-79
2021/12/27 05:20:38;;;;;;;32.43;17.97;;;;;;;6.87;100.00;94232.78;5095262;28;20546;-78
2021/12/27 05:23:06;;;;;;;28.60;17.27;;;;;;;6.89;100.00;94220.44;5092176;28;20207;-79
2021/12/27 05:25:34;;;;;;;26.17;16.10;;;;;;;6.97;100.00;94239.09;5092953;28;20211;-79
2021/12/27 05:28:04;;;;;;;23.87;15.13;;;;;;;6.97;100.00;94257.16;5092310;28;20231;-79
2021/12/27 05:30:32;;;;;;;27.17;14.33;;;;;;;7.04;100.00;94224.34;5091558;28;20652;-77
2021/12/27 05:33:01;;;;;;;24.13;14.77;;;;;;;7.03;100.00;94216.81;5091237;28;20286;-78
2021/12/27 05:35:31;;;;;;;24.17;14.23;;;;;;;7.03;100.00;94232.31;5098506;28;20207;-78
2021/12/27 05:38:00;;;;;;;21.57;13.57;;;;;;;7.02;100.00;94204.88;5097996;28;20282;-78
2021/12/27 05:40:28;;;;;;;20.57;13.07;;;;;;;7.05;100.00;94243.22;5096958;28;20206;-78
2021/12/27 05:42:56;;;;;;;28.17;15.43;;;;;;;6.87;100.00;94230.97;5095774;28;20990;-78
2021/12/27 05:45:24;;;;;;;36.03;17.57;;;;;;;6.69;100.00;94236.03;5099527;28;20207;-78
2021/12/27 05:47:52;;;;;;;23.93;15.20;;;;;;;6.72;100.00;94230.47;5090937;28;20199;-78
2021/12/27 05:50:20;;;;;;;30.90;16.10;;;;;;;6.78;100.00;94217.50;5090267;28;20286;-78
2021/12/27 05:52:50;;;;;;;26.80;15.80;;;;;;;6.89;100.00;94231.59;5091327;28;20610;-78
2021/12/27 05:55:18;;;;;;;27.63;16.40;;;;;;;6.92;100.00;94217.47;5094901;28;20200;-78
2021/12/27 05:57:46;;;;;;;30.27;17.80;;;;;;;6.89;100.00;94239.34;5097311;28;20254;-79
2021/12/27 06:00:15;;;;;;;31.00;17.83;;;;;;;6.87;100.00;94219.88;5088607;28;20208;-78
2021/12/27 06:02:44;;;;;;;33.77;17.73;;;;;;;6.88;100.00;94229.19;5098074;28;20650;-79
2021/12/27 06:05:13;;;;;;;31.07;18.00;;;;;;;6.87;100.00;94230.97;5092988;28;20215;-78
2021/12/27 06:07:41;;;;;;;29.47;16.07;;;;;;;6.91;100.00;94219.25;5097609;28;20206;-78
2021/12/27 06:10:11;;;;;;;36.27;19.77;;;;;;;6.81;100.00;94204.19;5092252;28;20212;-80
2021/12/27 06:12:40;;;;;;;33.87;18.80;;;;;;;6.95;100.00;94217.84;5090666;28;20275;-78
2021/12/27 06:15:09;;;;;;;38.87;19.43;;;;;;;6.91;100.00;94229.56;5093988;28;20216;-78
2021/12/27 06:17:38;;;;;;;31.27;18.50;;;;;;;6.86;100.00;94213.91;5094563;28;20238;-78
2021/12/27 06:20:08;;;;;;;34.00;18.87;;;;;;;6.89;100.00;94225.63;5091834;28;20215;-77
2021/12/27 06:22:39;;;;;;;32.57;18.23;;;;;;;7.01;100.00;94224.78;5091041;28;20196;-77
2021/12/27 06:25:10;;;;;;;31.27;18.50;;;;;;;6.86;100.00;94232.00;5091992;28;21518;-77
2021/12/27 06:27:37;;;;;;;31.57;18.80;;;;;;;6.66;100.00;94221.75;5101092;28;20965;-79
2021/12/27 06:30:08;;;;;;;31.73;19.77;;;;;;;6.71;100.00;94227.09;5101490;28;20211;-79
2021/12/27 06:32:37;;;;;;;30.90;18.97;;;;;;;6.62;100.00;94212.00;5094516;28;20196;-79
2021/12/27 06:35:08;;;;;;;31.57;18.43;;;;;;;6.67;100.00;94212.97;5093350;28;20208;-79
2021/12/27 06:37:38;;;;;;;31.90;18.30;;;;;;;6.70;100.00;94207.41;5094909;28;20263;-80
2021/12/27 06:40:07;;;;;;;33.60;18.63;;;;;;;6.69;100.00;94208.44;5091177;28;20195;-79
2021/12/27 06:42:37;;;;;;;31.13;17.63;;;;;;;6.84;100.00;94202.97;5093353;28;20211;-80
2021/12/27 06:45:06;;;;;;;30.20;17.23;;;;;;;6.93;100.00;94208.69;5104922;28;20285;-79
2021/12/27 06:47:34;;;;;;;31.37;18.73;;;;;;;7.01;100.00;94196.34;5089364;28;20223;-79
2021/12/27 06:50:03;;;;;;;28.97;16.80;;;;;;;6.92;100.00;94194.22;5098280;28;20262;-81
2021/12/27 06:52:31;;;;;;;28.73;16.73;;;;;;;6.87;100.00;94188.88;5094797;28;20232;-80
2021/12/27 06:55:00;;;;;;;27.83;16.83;;;;;;;7.06;100.00;94198.31;5102196;28;20204;-79
2021/12/27 06:57:28;;;;;;;27.17;16.23;;;;;;;7.14;100.00;94192.88;5108091;28;20275;-80
2021/12/27 06:59:59;;;;;;;29.10;17.10;;;;;;;7.06;100.00;94209.44;5091455;28;20229;-79
2021/12/27 07:02:28;;;;;;;33.40;19.17;;;;;;;6.87;100.00;94202.56;5091350;28;20207;-79
2021/12/27 07:04:56;;;;;;;32.27;19.83;;;;;;;6.80;100.00;94194.88;5090964;28;20284;-80
2021/12/27 07:07:24;;;;;;;27.87;17.67;;;;;;;6.95;100.00;94183.47;5102629;28;20203;-79
2021/12/27 07:09:52;;;;;;;30.83;18.20;;;;;;;7.04;100.00;94175.25;5093888;28;20579;-80
2021/12/27 07:12:19;;;;;;;25.40;13.53;;;;;;;7.20;100.00;94186.91;5091875;27;20668;-80
2021/12/27 07:14:48;;;;;;;24.20;13.53;;;;;;;7.31;100.00;94181.06;5099113;28;20206;-81
2021/12/27 07:17:17;;;;;;;22.43;13.33;;;;;;;7.48;100.00;94192.47;5103671;28;20200;-81
2021/12/27 07:19:45;;;;;;;24.77;12.93;;;;;;;7.61;100.00;94202.72;5090914;28;20294;-80
2021/12/27 07:22:13;;;;;;;24.27;13.30;;;;;;;7.75;100.00;94188.69;5103685;28;20294;-80
2021/12/27 07:24:42;;;;;;;18.27;11.97;;;;;;;7.76;100.00;94192.81;5080058;28;20290;-80
2021/12/27 07:27:09;;;;;;;17.83;11.23;;;;;;;7.84;100.00;94205.53;5093804;28;20204;-80
2021/12/27 07:29:41;;;;;;;18.63;10.67;;;;;;;7.96;100.00;94201.22;5095928;28;20671;-79
2021/12/27 07:32:09;;;;;;;18.43;9.97;;;;;;;8.06;100.00;94205.91;5098349;28;20261;-79
2021/12/27 07:34:39;;;;;;;18.10;10.77;;;;;;;8.16;100.00;94208.81;5091118;28;20228;-78
2021/12/27 07:37:07;;;;;;;17.57;10.53;;;;;;;8.26;100.00;94218.66;5095813;28;20204;-78
2021/12/27 07:39:35;;;;;;;17.73;10.60;;;;;;;8.31;100.00;94211.09;5088884;28;20220;-78
2021/12/27 07:42:03;;;;;;;16.93;10.73;;;;;;;8.39;99.88;94210.81;5091269;28;20212;-78
2021/12/27 07:44:31;;;;;;;18.73;10.90;;;;;;;8.45;99.21;94215.13;5095877;28;20259;-79
2021/12/27 07:46:59;;;;;;;20.47;11.17;;;;;;;8.39;98.90;94190.09;5092508;28;20231;-79
2021/12/27 07:49:28;;;;;;;21.90;10.97;;;;;;;8.39;99.69;94188.31;5094588;28;20192;-78
2021/12/27 07:51:57;;;;;;;26.77;11.40;;;;;;;8.45;100.00;94209.94;5091276;28;20197;-78
2021/12/27 07:54:24;;;;;;;17.47;10.47;;;;;;;8.47;99.29;94188.00;5090775;28;20204;-79
2021/12/27 07:56:52;;;;;;;17.70;10.47;;;;;;;8.46;99.19;94186.41;5088640;28;20622;-79
2021/12/27 07:59:20;;;;;;;18.13;10.60;;;;;;;8.41;99.10;94188.88;5088846;28;20221;-78
2021/12/27 08:01:48;;;;;;;15.57;10.23;;;;;;;8.41;98.23;94217.34;5088319;28;20193;-79
2021/12/27 08:04:17;;;;;;;22.70;12.63;;;;;;;8.47;98.37;94200.16;5091477;28;20193;-80
2021/12/27 08:06:47;;;;;;;27.43;16.73;;;;;;;8.45;98.39;94210.75;5085008;28;20667;-79
2021/12/27 08:09:18;;;;;;;26.70;14.87;;;;;;;8.48;99.29;94181.81;5087676;28;20200;-79
2021/12/27 08:11:47;;;;;;;21.33;11.77;;;;;;;8.47;99.20;94202.75;5091596;28;20200;-78
2021/12/27 08:14:15;;;;;;;21.93;10.40;;;;;;;8.35;98.13;94192.31;5090340;28;20200;-83
2021/12/27 08:16:44;;;;;;;18.80;11.13;;;;;;;8.10;98.66;94160.50;5101712;28;20682;-81
2021/12/27 08:19:13;;;;;;;18.80;11.50;;;;;;;8.16;100.00;94164.03;5090963;28;20224;-80
2021/12/27 08:21:42;;;;;;;20.10;11.33;;;;;;;8.21;100.00;94175.31;5093871;28;20200;-78
2021/12/27 08:24:16;;;;;;;20.50;11.60;;;;;;;8.30;100.00;94196.56;5091381;28;20207;-79
2021/12/27 08:26:45;;;;;;;20.93;13.40;;;;;;;8.36;100.00;94201.69;5093464;28;20557;-79
2021/12/27 08:29:14;;;;;;;25.70;15.07;;;;;;;8.39;100.00;94184.91;5092201;28;20323;-77
2021/12/27 08:31:44;;;;;;;22.43;12.60;;;;;;;8.41;100.00;94175.94;5101692;28;20283;-78
2021/12/27 08:34:14;;;;;;;22.10;13.40;;;;;;;8.52;100.00;94184.75;5098376;28;20200;-79
2021/12/27 08:36:44;;;;;;;23.17;13.23;;;;;;;8.67;99.20;94177.41;5093710;28;20200;-80
2021/12/27 08:39:13;;;;;;;21.90;13.27;;;;;;;8.65;98.82;94170.88;5088750;28;20307;-78
2021/12/27 08:41:43;;;;;;;21.13;12.30;;;;;;;8.75;98.73;94169.34;5088815;28;20211;-81
2021/12/27 08:44:10;;;;;;;21.93;12.37;;;;;;;8.78;98.00;94183.66;5096056;28;20268;-77
2021/12/27 08:46:40;;;;;;;17.27;11.33;;;;;;;8.74;97.80;94141.06;5098317;28;20596;-77
2021/12/27 08:49:09;;;;;;;20.07;11.83;;;;;;;8.61;98.41;94092.81;5094741;28;20203;-80
2021/12/27 08:51:38;;;;;;;19.67;11.57;;;;;;;8.70;99.08;94132.94;5091170;28;20201;-77
2021/12/27 08:54:07;;;;;;;18.97;11.80;;;;;;;8.80;97.92;94171.28;5086541;28;20227;-84
2021/12/27 08:56:36;;;;;;;19.43;12.13;;;;;;;8.95;96.67;94162.09;5091107;28;20284;-77
2021/12/27 08:59:17;;;;;;;18.87;11.57;;;;;;;9.03;96.54;94192.13;5093294;28;20316;-78
2021/12/27 09:01:45;;;;;;;14.90;10.10;;;;;;;8.93;96.57;94127.06;5085815;28;20265;-77
2021/12/27 09:04:13;;;;;;;17.07;11.13;;;;;;;9.01;96.59;94137.09;5090984;28;20994;-76
2021/12/27 09:06:42;;;;;;;20.33;11.80;;;;;;;9.09;97.17;94145.34;5086822;28;20201;-75
2021/12/27 09:09:11;;;;;;;18.47;10.67;;;;;;;9.11;96.88;94148.53;5087444;28;20211;-77
2021/12/27 09:11:39;;;;;;;16.93;10.50;;;;;;;9.16;96.32;94132.31;5084687;28;20201;-78
2021/12/27 09:14:10;;;;;;;18.80;10.30;;;;;;;9.28;96.09;94140.13;5092859;28;20208;-78
2021/12/27 09:16:40;;;;;;;18.53;10.80;;;;;;;9.36;95.85;94119.84;5094671;28;20267;-77
2021/12/27 09:19:10;;;;;;;16.50;9.87;;;;;;;9.47;95.00;94102.72;5093625;28;20227;-78
2021/12/27 09:21:42;;;;;;;18.33;10.53;;;;;;;9.37;95.40;94102.47;5090700;28;20208;-79
2021/12/27 09:24:10;;;;;;;17.43;9.83;;;;;;;9.14;95.53;94126.56;5095573;28;20208;-77
2021/12/27 09:26:39;;;;;;;20.50;13.23;;;;;;;9.04;98.80;94115.94;5096743;28;20834;-77
2021/12/27 09:29:08;;;;;;;25.80;15.57;;;;;;;9.09;97.46;94106.47;5089338;28;20259;-79
2021/12/27 09:31:35;;;;;;;50.23;33.33;;;;;;;9.13;97.54;94091.28;5097214;28;20216;-78
2021/12/27 09:34:04;;;;;;;41.10;26.03;;;;;;;9.20;97.21;94078.22;5093605;28;20315;-77
2021/12/27 09:36:33;;;;;;;39.80;23.37;;;;;;;9.34;96.61;94087.38;5102353;28;20211;-83
2021/12/27 09:39:01;;;;;;;29.37;17.63;;;;;;;9.50;94.90;94103.06;5102312;28;20220;-83
2021/12/27 09:41:28;;;;;;;42.37;27.07;;;;;;;9.47;94.51;94063.81;5105398;28;20274;-83
2021/12/27 09:43:56;;;;;;;45.73;28.63;;;;;;;9.67;94.10;94082.41;5100645;28;20196;-85
2021/12/27 09:46:25;;;;;;;42.10;27.70;;;;;;;9.72;94.27;94064.38;5102901;28;20652;-82
2021/12/27 09:48:56;;;;;;;25.93;17.50;;;;;;;9.86;93.73;94073.50;5093325;28;20185;-85
2021/12/27 09:51:26;;;;;;;19.50;13.70;;;;;;;10.08;91.75;94081.47;5091760;28;20204;-77
2021/12/27 09:53:55;;;;;;;34.77;21.97;;;;;;;10.12;90.95;94067.81;5100035;28;20208;-85
2021/12/27 09:56:23;;;;;;;80.37;46.37;;;;;;;10.24;89.86;94054.84;5096100;28;20272;-81
2021/12/27 09:58:50;;;;;;;73.20;43.00;;;;;;;10.29;90.55;94049.75;5098032;28;20709;-81
2021/12/27 10:01:19;;;;;;;64.87;38.23;;;;;;;10.34;90.33;94072.41;5097433;28;20200;-85
2021/12/27 10:03:50;;;;;;;43.43;27.53;;;;;;;10.40;90.21;94092.28;5105081;28;20232;-81
2021/12/27 10:06:19;;;;;;;38.27;23.77;;;;;;;10.42;89.32;94067.63;5093517;28;20314;-81
2021/12/27 10:08:51;;;;;;;37.80;22.63;;;;;;;10.42;90.21;94061.69;5095299;28;20232;-80
2021/12/27 10:11:20;;;;;;;34.87;22.43;;;;;;;10.44;90.13;94086.41;5099165;28;20199;-82
2021/12/27 10:14:03;;;;;;;34.47;20.23;;;;;;;10.49;89.97;94077.91;5102487;28;20291;-83
2021/12/27 10:16:35;;;;;;;27.97;17.97;;;;;;;10.56;89.93;94066.34;5089063;28;20196;-79
2021/12/27 10:19:06;;;;;;;20.67;13.03;;;;;;;10.62;88.45;94057.63;5091656;28;20211;-79
2021/12/27 10:21:35;;;;;;;24.20;12.83;;;;;;;10.61;88.70;94065.66;5094821;28;20195;-78
2021/12/27 10:24:07;;;;;;;23.70;13.37;;;;;;;10.56;89.45;94055.94;5093400;28;20309;-79
2021/12/27 10:26:37;;;;;;;23.07;11.73;;;;;;;10.66;88.96;94056.16;5095133;28;20198;-79
2021/12/27 10:29:15;;;;;;;23.40;13.60;;;;;;;10.73;87.65;94069.00;5093327;28;20335;-78
2021/12/27 10:31:59;;;;;;;28.73;13.70;;;;;;;10.82;88.24;94052.78;5090377;28;20270;-79
2021/12/27 10:34:31;;;;;;;43.87;17.80;;;;;;;10.87;87.81;94061.69;5102128;28;20630;-79
2021/12/27 10:37:18;;;;;;;24.13;14.23;;;;;;;10.92;87.46;94062.56;5091815;28;20196;-78
2021/12/27 10:39:54;;;;;;;21.00;10.87;;;;;;;10.96;85.55;94044.72;5088206;28;20225;-79
2021/12/27 10:42:25;;;;;;;15.97;9.87;;;;;;;10.91;85.92;94036.84;5080444;28;20633;-78
2021/12/27 10:44:55;;;;;;;19.40;10.03;;;;;;;10.77;86.48;94050.09;5092128;28;21014;-78
2021/12/27 10:47:38;;;;;;;19.60;10.87;;;;;;;10.79;87.66;94037.66;5096987;28;20261;-82
2021/12/27 10:50:13;;;;;;;18.13;9.43;;;;;;;11.21;86.64;94042.50;5096732;28;20245;-79
2021/12/27 10:52:46;;;;;;;27.07;11.03;;;;;;;11.63;84.47;94037.69;5095397;28;20209;-81
2021/12/27 10:55:19;;;;;;;15.43;8.70;;;;;;;11.89;81.81;94027.38;5092398;28;20230;-82
2021/12/27 10:57:47;;;;;;;17.10;8.30;;;;;;;12.20;80.80;94028.56;5099429;28;20200;-82
2021/12/27 11:00:25;;;;;;;12.80;7.03;;;;;;;12.63;78.70;94029.53;5098198;28;20285;-81
2021/12/27 11:02:54;;;;;;;8.77;4.57;;;;;;;13.21;74.56;94034.81;5104064;28;20204;-82
2021/12/27 11:05:26;;;;;;;2.93;2.23;;;;;;;13.70;70.65;94032.78;5089572;28;20231;-80
2021/12/27 11:07:59;;;;;;;5.33;2.80;;;;;;;14.23;68.99;94037.75;5093896;28;20212;-82
2021/12/27 11:10:30;;;;;;;7.80;3.37;;;;;;;14.43;68.33;94031.84;5089780;28;20203;-80
2021/12/27 11:12:59;;;;;;;7.33;3.70;;;;;;;14.49;68.27;94043.09;5098313;28;20200;-81
2021/12/27 11:15:30;;;;;;;9.00;4.13;;;;;;;14.39;68.72;94011.72;5093571;28;20660;-80
2021/12/27 11:17:58;;;;;;;8.07;4.10;;;;;;;14.23;69.72;94036.97;5091471;28;20591;-81
2021/12/27 11:20:26;;;;;;;13.97;4.90;;;;;;;13.99;70.40;94020.16;5095651;28;20885;-81
2021/12/27 11:22:58;;;;;;;8.70;4.30;;;;;;;13.86;70.70;94031.03;5099925;28;20667;-81
2021/12/27 11:25:32;;;;;;;8.80;4.93;;;;;;;13.75;71.01;94011.13;5097063;28;20286;-81
2021/12/27 11:28:02;;;;;;;12.57;5.93;;;;;;;13.68;71.90;94018.41;5106472;28;20652;-81
2021/12/27 11:30:33;;;;;;;13.20;6.40;;;;;;;13.60;72.37;94015.22;5096297;28;20631;-82